RCMS weather

CLOSED Ilan Airfield
Ilan, Ilan County, Taiwan

Public forecast

Using degrees Celsius for public forecast. Weather courtesy of forecast.io.

Closest aviation weather report (METAR) to Ilan Airfield

Closest report is Taipei Songshan Airport, 23.1 nm (42.7 km) NNW. Retrieved 2019/10/16 06:30 UTC (6 minutes ago):

RCSS 160630Z 09005KT 050V120 9999 FEW020 BKN035 BKN050 25/20 Q1017 NOSIG RMK A3004

Closest aviation forecast (TAF) to Ilan Airfield

Closest forecast is Taipei Songshan Airport, 23.1 nm (42.7 km) NNW. Retrieved 2019/10/16 06:00 UTC (36 minutes ago):

TAF RCSS 160500Z 1606/1706 10008KT 9999 FEW016 BKN032 TEMPO 1618/1624 5000 RA FEW010 BKN020 TEMPO 1700/1706 10013KT 5000 RA FEW010 BKN020